Aeroporto :
LOGIN :

Iscrizione | Disclaimer

   EN    FR    IT 

 










Sommario :    VFR   VFR Marginale   IFR   IFR Intensivo   IFR Molto Intensivo
Visibilità : 
Base nubi : 
>= 8 km
>= 3000ft
5 / 8 km
1000 / 3000 ft
1500m / 5 km
500 / 1000 ft
800 / 1500m
200 / 500 ft
< 800m
< 200 ft
Simboli :   Temporali  Nebbia  Neve Forte  Precipitazioni Forti  Vento > 20 kt
SIGMETs :   Varie  Temporali  Ghiacco  Turbolenza  Onda orograficha  Ceneri Vulcaniche







- Altitudine del aeroporto : 74 ft
- Codice IATA : NDZ


ETMN - Cuxhaven Nordholz Sea AB

ULTIMO METAR :
  • 220620Z 32014KT 9999 -DZ BKN009 11/09 Q1015 GRN GRN TEMPO YLO

METARs OBSOLETI :
  • 220520Z 31015KT 7000 BKN010 11/08 Q1014 GRN GRN TEMPO YLO
  • 220420Z 31016KT 5000 BR OVC006 10/09 Q1014 YLO GRN TEMPO YLO

TAF TAF ETMN
Valido dal 22 a 05 ore il 22 a 14 ore UTC


220419Z 2205/2214 30015G25KT 9999 NSW SCT004 BKN010
TEMPO 2205/2208 31015G25KT 4000 -DZ BKN003 BKN010
PROB30 2205/2208 31015G25KT 3000 -DZ BKN002 BKN010
BECMG 2209/2211 31015G25KT 9999 NSW BKN020
Nessun NOTAM noto per questo aeroporto.



MetMap, La meteo Aeronautica in un colpo d'occhio ! - Copyright ORBIFLY Dicembre 2007 - Disclaimer

ORBIFLY MET'MAP TEAM :

Programmazione e sviluppo : Alexandra Zaïnal
Concezione e sviluppo : Baudouin d'Aumeries
Co-Programmazione e sviluppo : Marc-Olivier Méhu
Supporto tecnico e logistico : Manuel Goepfert
Aiuto per la traduzione : Arnaldo La Scala

Contatto : metmap@orbifly.com




FONTI E CREDITI :

   NOAA